sensor_id;sensor_type;location;lat;lon;timestamp;pressure;altitude;pressure_sealevel;temperature;humidity
64080;BME280;51042;49.696;10.808;2023-03-04T00:02:02;98973.28;;;-2.51;100.00
64080;BME280;51042;49.696;10.808;2023-03-04T00:04:27;98966.88;;;-2.58;100.00
64080;BME280;51042;49.696;10.808;2023-03-04T00:06:52;98974.94;;;-2.58;100.00
64080;BME280;51042;49.696;10.808;2023-03-04T00:09:18;98976.28;;;-2.64;100.00
64080;BME280;51042;49.696;10.808;2023-03-04T00:11:43;98974.78;;;-2.74;100.00
64080;BME280;51042;49.696;10.808;2023-03-04T00:14:08;98976.47;;;-2.81;100.00
64080;BME280;51042;49.696;10.808;2023-03-04T00:16:33;98969.53;;;-2.82;100.00
64080;BME280;51042;49.696;10.808;2023-03-04T00:18:59;98966.59;;;-2.90;100.00
64080;BME280;51042;49.696;10.808;2023-03-04T00:21:24;98975.19;;;-2.96;100.00
64080;BME280;51042;49.696;10.808;2023-03-04T00:23:49;98975.41;;;-3.01;100.00
64080;BME280;51042;49.696;10.808;2023-03-04T00:26:15;98972.59;;;-3.05;100.00
64080;BME280;51042;49.696;10.808;2023-03-04T00:28:40;98974.94;;;-3.03;100.00
64080;BME280;51042;49.696;10.808;2023-03-04T00:31:06;98980.66;;;-3.05;100.00
64080;BME280;51042;49.696;10.808;2023-03-04T00:33:31;98973.72;;;-3.06;100.00
64080;BME280;51042;49.696;10.808;2023-03-04T00:35:56;98969.91;;;-3.05;100.00
64080;BME280;51042;49.696;10.808;2023-03-04T00:38:21;98973.38;;;-3.04;100.00
64080;BME280;51042;49.696;10.808;2023-03-04T00:40:46;98981.75;;;-3.06;100.00
64080;BME280;51042;49.696;10.808;2023-03-04T00:43:12;98980.19;;;-3.07;100.00
64080;BME280;51042;49.696;10.808;2023-03-04T00:45:37;98980.19;;;-3.07;100.00
64080;BME280;51042;49.696;10.808;2023-03-04T00:48:02;98979.41;;;-3.07;100.00
64080;BME280;51042;49.696;10.808;2023-03-04T00:50:27;98983.88;;;-3.11;100.00
64080;BME280;51042;49.696;10.808;2023-03-04T00:52:52;98985.44;;;-3.10;100.00
64080;BME280;51042;49.696;10.808;2023-03-04T00:55:18;98985.88;;;-3.08;100.00
64080;BME280;51042;49.696;10.808;2023-03-04T00:57:43;98988.88;;;-3.10;100.00
64080;BME280;51042;49.696;10.808;2023-03-04T01:00:08;98982.75;;;-3.10;100.00
64080;BME280;51042;49.696;10.808;2023-03-04T01:02:33;98985.50;;;-3.19;100.00
64080;BME280;51042;49.696;10.808;2023-03-04T01:04:59;98980.22;;;-3.28;100.00
64080;BME280;51042;49.696;10.808;2023-03-04T01:07:24;98982.00;;;-3.32;100.00
64080;BME280;51042;49.696;10.808;2023-03-04T01:09:49;98978.53;;;-3.32;100.00
64080;BME280;51042;49.696;10.808;2023-03-04T01:12:14;98976.84;;;-3.37;100.00
64080;BME280;51042;49.696;10.808;2023-03-04T01:14:39;98973.09;;;-3.44;100.00
64080;BME280;51042;49.696;10.808;2023-03-04T01:17:04;98977.34;;;-3.43;100.00
64080;BME280;51042;49.696;10.808;2023-03-04T01:19:30;98974.22;;;-3.45;100.00
64080;BME280;51042;49.696;10.808;2023-03-04T01:21:55;98971.09;;;-3.47;100.00
64080;BME280;51042;49.696;10.808;2023-03-04T01:24:20;98974.09;;;-3.49;100.00
64080;BME280;51042;49.696;10.808;2023-03-04T01:26:45;98979.63;;;-3.33;100.00
64080;BME280;51042;49.696;10.808;2023-03-04T01:29:10;98982.56;;;-3.26;100.00
64080;BME280;51042;49.696;10.808;2023-03-04T01:31:36;98972.94;;;-3.27;100.00
64080;BME280;51042;49.696;10.808;2023-03-04T01:34:01;98975.06;;;-3.33;100.00
64080;BME280;51042;49.696;10.808;2023-03-04T01:36:26;98972.78;;;-3.43;100.00
64080;BME280;51042;49.696;10.808;2023-03-04T01:38:51;98957.72;;;-3.56;100.00
64080;BME280;51042;49.696;10.808;2023-03-04T01:41:18;98963.50;;;-3.66;100.00
64080;BME280;51042;49.696;10.808;2023-03-04T01:43:46;98945.25;;;-3.73;100.00
64080;BME280;51042;49.696;10.808;2023-03-04T01:46:11;98958.59;;;-3.85;100.00
64080;BME280;51042;49.696;10.808;2023-03-04T01:48:39;98959.56;;;-3.89;100.00
64080;BME280;51042;49.696;10.808;2023-03-04T01:51:05;98955.13;;;-3.85;100.00
64080;BME280;51042;49.696;10.808;2023-03-04T01:53:31;98957.94;;;-3.82;100.00
64080;BME280;51042;49.696;10.808;2023-03-04T01:55:59;98955.84;;;-3.76;100.00
64080;BME280;51042;49.696;10.808;2023-03-04T01:58:27;98954.41;;;-3.74;100.00
64080;BME280;51042;49.696;10.808;2023-03-04T02:00:53;98948.91;;;-3.77;100.00
64080;BME280;51042;49.696;10.808;2023-03-04T02:03:18;98946.22;;;-3.77;100.00
64080;BME280;51042;49.696;10.808;2023-03-04T02:05:45;98944.59;;;-3.69;100.00
64080;BME280;51042;49.696;10.808;2023-03-04T02:08:11;98947.22;;;-3.61;100.00
64080;BME280;51042;49.696;10.808;2023-03-04T02:10:38;98945.84;;;-3.46;100.00
64080;BME280;51042;49.696;10.808;2023-03-04T02:13:04;98944.91;;;-3.30;100.00
64080;BME280;51042;49.696;10.808;2023-03-04T02:15:30;98942.63;;;-3.07;100.00
64080;BME280;51042;49.696;10.808;2023-03-04T02:17:55;98941.88;;;-2.83;100.00
64080;BME280;51042;49.696;10.808;2023-03-04T02:20:32;98934.75;;;-2.67;100.00
64080;BME280;51042;49.696;10.808;2023-03-04T02:23:08;98938.78;;;-2.49;100.00
64080;BME280;51042;49.696;10.808;2023-03-04T02:25:37;98938.78;;;-2.36;100.00
64080;BME280;51042;49.696;10.808;2023-03-04T02:28:06;98932.06;;;-2.30;100.00
64080;BME280;51042;49.696;10.808;2023-03-04T02:30:31;98932.19;;;-2.27;100.00
64080;BME280;51042;49.696;10.808;2023-03-04T02:32:57;98939.81;;;-2.29;100.00
64080;BME280;51042;49.696;10.808;2023-03-04T02:35:22;98932.19;;;-2.27;100.00
64080;BME280;51042;49.696;10.808;2023-03-04T02:37:47;98928.91;;;-2.20;100.00
64080;BME280;51042;49.696;10.808;2023-03-04T02:43:08;98932.28;;;-2.35;100.00
64080;BME280;51042;49.696;10.808;2023-03-04T02:45:55;98938.31;;;-2.26;100.00
64080;BME280;51042;49.696;10.808;2023-03-04T02:48:20;98930.94;;;-2.17;100.00
64080;BME280;51042;49.696;10.808;2023-03-04T02:50:49;98932.63;;;-2.13;100.00
64080;BME280;51042;49.696;10.808;2023-03-04T02:53:15;98924.22;;;-2.11;100.00
64080;BME280;51042;49.696;10.808;2023-03-04T02:55:40;98928.47;;;-1.98;100.00
64080;BME280;51042;49.696;10.808;2023-03-04T02:58:09;98920.94;;;-1.92;100.00
64080;BME280;51042;49.696;10.808;2023-03-04T03:00:34;98915.66;;;-1.89;100.00
64080;BME280;51042;49.696;10.808;2023-03-04T03:02:59;98917.31;;;-1.84;100.00
64080;BME280;51042;49.696;10.808;2023-03-04T03:05:25;98922.28;;;-1.86;100.00
64080;BME280;51042;49.696;10.808;2023-03-04T03:07:51;98920.50;;;-1.94;100.00
64080;BME280;51042;49.696;10.808;2023-03-04T03:10:16;98918.69;;;-2.02;100.00
64080;BME280;51042;49.696;10.808;2023-03-04T03:12:41;98919.69;;;-1.95;100.00
64080;BME280;51042;49.696;10.808;2023-03-04T03:15:07;98914.88;;;-1.89;100.00
64080;BME280;51042;49.696;10.808;2023-03-04T03:17:33;98911.31;;;-1.93;100.00
64080;BME280;51042;49.696;10.808;2023-03-04T03:19:58;98915.88;;;-1.82;100.00
64080;BME280;51042;49.696;10.808;2023-03-04T03:22:24;98918.00;;;-1.75;100.00
64080;BME280;51042;49.696;10.808;2023-03-04T03:24:49;98913.59;;;-1.68;100.00
64080;BME280;51042;49.696;10.808;2023-03-04T03:27:14;98914.94;;;-1.61;100.00
64080;BME280;51042;49.696;10.808;2023-03-04T03:29:39;98909.63;;;-1.58;100.00
64080;BME280;51042;49.696;10.808;2023-03-04T03:32:04;98905.13;;;-1.54;100.00
64080;BME280;51042;49.696;10.808;2023-03-04T03:34:30;98912.25;;;-1.61;100.00
64080;BME280;51042;49.696;10.808;2023-03-04T03:36:55;98909.09;;;-1.63;100.00
64080;BME280;51042;49.696;10.808;2023-03-04T03:39:20;98912.56;;;-1.63;100.00
64080;BME280;51042;49.696;10.808;2023-03-04T03:41:46;98916.91;;;-1.58;100.00
64080;BME280;51042;49.696;10.808;2023-03-04T03:44:11;98916.50;;;-1.73;100.00
64080;BME280;51042;49.696;10.808;2023-03-04T03:46:36;98915.84;;;-1.70;100.00
64080;BME280;51042;49.696;10.808;2023-03-04T03:49:01;98908.75;;;-1.62;100.00
64080;BME280;51042;49.696;10.808;2023-03-04T03:51:26;98912.41;;;-1.54;100.00
64080;BME280;51042;49.696;10.808;2023-03-04T03:53:52;98910.03;;;-1.44;100.00
64080;BME280;51042;49.696;10.808;2023-03-04T03:56:17;98909.69;;;-1.42;100.00
64080;BME280;51042;49.696;10.808;2023-03-04T03:58:42;98911.03;;;-1.48;100.00
64080;BME280;51042;49.696;10.808;2023-03-04T04:01:07;98907.88;;;-1.38;100.00
64080;BME280;51042;49.696;10.808;2023-03-04T04:03:33;98903.50;;;-1.43;100.00
64080;BME280;51042;49.696;10.808;2023-03-04T04:05:58;98914.47;;;-1.36;100.00
64080;BME280;51042;49.696;10.808;2023-03-04T04:08:24;98907.72;;;-1.30;100.00
64080;BME280;51042;49.696;10.808;2023-03-04T04:10:49;98912.84;;;-1.25;100.00
64080;BME280;51042;49.696;10.808;2023-03-04T04:13:14;98913.38;;;-1.19;100.00
64080;BME280;51042;49.696;10.808;2023-03-04T04:15:39;98919.53;;;-1.18;100.00
64080;BME280;51042;49.696;10.808;2023-03-04T04:18:05;98922.03;;;-1.13;100.00
64080;BME280;51042;49.696;10.808;2023-03-04T04:20:30;98920.53;;;-1.11;100.00
64080;BME280;51042;49.696;10.808;2023-03-04T04:22:55;98918.53;;;-1.14;100.00
64080;BME280;51042;49.696;10.808;2023-03-04T04:25:20;98921.66;;;-1.12;100.00
64080;BME280;51042;49.696;10.808;2023-03-04T04:27:45;98920.28;;;-1.06;100.00
64080;BME280;51042;49.696;10.808;2023-03-04T04:30:11;98916.53;;;-1.01;100.00
64080;BME280;51042;49.696;10.808;2023-03-04T04:32:36;98917.69;;;-1.02;100.00
64080;BME280;51042;49.696;10.808;2023-03-04T04:35:01;98921.84;;;-1.05;100.00
64080;BME280;51042;49.696;10.808;2023-03-04T04:37:26;98914.09;;;-1.06;100.00
64080;BME280;51042;49.696;10.808;2023-03-04T04:39:51;98922.44;;;-1.11;100.00
64080;BME280;51042;49.696;10.808;2023-03-04T04:42:19;98922.78;;;-1.13;100.00
64080;BME280;51042;49.696;10.808;2023-03-04T04:44:44;98916.78;;;-1.22;100.00
64080;BME280;51042;49.696;10.808;2023-03-04T04:47:09;98918.34;;;-1.21;100.00
64080;BME280;51042;49.696;10.808;2023-03-04T04:49:35;98917.22;;;-1.20;100.00
64080;BME280;51042;49.696;10.808;2023-03-04T04:52:00;98918.75;;;-1.19;100.00
64080;BME280;51042;49.696;10.808;2023-03-04T04:54:25;98913.03;;;-1.17;100.00
64080;BME280;51042;49.696;10.808;2023-03-04T04:56:50;98916.06;;;-1.19;100.00
64080;BME280;51042;49.696;10.808;2023-03-04T04:59:16;98917.31;;;-1.16;100.00
64080;BME280;51042;49.696;10.808;2023-03-04T05:01:41;98914.63;;;-1.16;100.00
64080;BME280;51042;49.696;10.808;2023-03-04T05:04:06;98917.56;;;-1.21;100.00
64080;BME280;51042;49.696;10.808;2023-03-04T05:06:31;98916.00;;;-1.23;100.00
64080;BME280;51042;49.696;10.808;2023-03-04T05:08:56;98919.81;;;-1.24;100.00
64080;BME280;51042;49.696;10.808;2023-03-04T05:11:22;98912.50;;;-1.23;100.00
64080;BME280;51042;49.696;10.808;2023-03-04T05:13:47;98921.72;;;-1.24;100.00
64080;BME280;51042;49.696;10.808;2023-03-04T05:16:13;98915.19;;;-1.23;100.00
64080;BME280;51042;49.696;10.808;2023-03-04T05:18:38;98918.84;;;-1.31;100.00
64080;BME280;51042;49.696;10.808;2023-03-04T05:21:04;98919.28;;;-1.29;100.00
64080;BME280;51042;49.696;10.808;2023-03-04T05:23:33;98920.63;;;-1.35;100.00
64080;BME280;51042;49.696;10.808;2023-03-04T05:25:59;98924.56;;;-1.33;100.00
64080;BME280;51042;49.696;10.808;2023-03-04T05:28:25;98922.28;;;-1.31;100.00
64080;BME280;51042;49.696;10.808;2023-03-04T05:30:51;98914.34;;;-1.27;100.00
64080;BME280;51042;49.696;10.808;2023-03-04T05:33:16;98911.09;;;-1.33;100.00
64080;BME280;51042;49.696;10.808;2023-03-04T05:35:41;98914.91;;;-1.34;100.00
64080;BME280;51042;49.696;10.808;2023-03-04T05:38:08;98910.31;;;-1.33;100.00
64080;BME280;51042;49.696;10.808;2023-03-04T05:40:34;98927.94;;;-1.36;100.00
64080;BME280;51042;49.696;10.808;2023-03-04T05:42:59;98915.72;;;-1.33;100.00
64080;BME280;51042;49.696;10.808;2023-03-04T05:45:25;98922.06;;;-1.26;100.00
64080;BME280;51042;49.696;10.808;2023-03-04T05:47:50;98922.16;;;-1.22;100.00
64080;BME280;51042;49.696;10.808;2023-03-04T05:50:15;98920.25;;;-1.21;100.00
64080;BME280;51042;49.696;10.808;2023-03-04T05:52:40;98922.81;;;-1.25;100.00
64080;BME280;51042;49.696;10.808;2023-03-04T05:55:05;98927.09;;;-1.24;100.00
64080;BME280;51042;49.696;10.808;2023-03-04T05:57:31;98928.22;;;-1.25;100.00
64080;BME280;51042;49.696;10.808;2023-03-04T05:59:56;98923.63;;;-1.25;100.00
64080;BME280;51042;49.696;10.808;2023-03-04T06:02:21;98923.97;;;-1.26;100.00
64080;BME280;51042;49.696;10.808;2023-03-04T06:04:46;98922.94;;;-1.21;100.00
64080;BME280;51042;49.696;10.808;2023-03-04T06:07:12;98930.44;;;-1.15;100.00
64080;BME280;51042;49.696;10.808;2023-03-04T06:09:37;98923.13;;;-1.14;100.00
64080;BME280;51042;49.696;10.808;2023-03-04T06:12:02;98929.31;;;-1.14;100.00
64080;BME280;51042;49.696;10.808;2023-03-04T06:14:27;98928.59;;;-1.11;100.00
64080;BME280;51042;49.696;10.808;2023-03-04T06:16:52;98937.13;;;-1.09;100.00
64080;BME280;51042;49.696;10.808;2023-03-04T06:19:17;98937.91;;;-1.08;100.00
64080;BME280;51042;49.696;10.808;2023-03-04T06:21:43;98942.25;;;-1.04;100.00
64080;BME280;51042;49.696;10.808;2023-03-04T06:24:08;98944.38;;;-0.97;100.00
64080;BME280;51042;49.696;10.808;2023-03-04T06:26:33;98943.00;;;-0.91;100.00
64080;BME280;51042;49.696;10.808;2023-03-04T06:28:58;98949.25;;;-0.87;100.00
64080;BME280;51042;49.696;10.808;2023-03-04T06:31:23;98952.03;;;-0.84;100.00
64080;BME280;51042;49.696;10.808;2023-03-04T06:33:48;98944.03;;;-0.80;100.00
64080;BME280;51042;49.696;10.808;2023-03-04T06:36:14;98956.47;;;-0.75;100.00
64080;BME280;51042;49.696;10.808;2023-03-04T06:38:39;98957.78;;;-0.69;100.00
64080;BME280;51042;49.696;10.808;2023-03-04T06:41:05;98964.81;;;-0.65;100.00
64080;BME280;51042;49.696;10.808;2023-03-04T06:43:31;98961.44;;;-0.62;100.00
64080;BME280;51042;49.696;10.808;2023-03-04T06:45:56;98964.66;;;-0.56;100.00
64080;BME280;51042;49.696;10.808;2023-03-04T06:48:21;98968.13;;;-0.56;100.00
64080;BME280;51042;49.696;10.808;2023-03-04T06:50:46;98963.28;;;-0.50;100.00
64080;BME280;51042;49.696;10.808;2023-03-04T06:53:11;98970.66;;;-0.47;100.00
64080;BME280;51042;49.696;10.808;2023-03-04T06:55:36;98974.91;;;-0.46;100.00
64080;BME280;51042;49.696;10.808;2023-03-04T06:58:01;98972.06;;;-0.37;100.00
64080;BME280;51042;49.696;10.808;2023-03-04T07:00:27;98969.09;;;-0.32;100.00
64080;BME280;51042;49.696;10.808;2023-03-04T07:02:52;98971.53;;;-0.27;100.00
64080;BME280;51042;49.696;10.808;2023-03-04T07:05:17;98984.41;;;-0.21;100.00
64080;BME280;51042;49.696;10.808;2023-03-04T07:07:42;98967.50;;;-0.18;100.00
64080;BME280;51042;49.696;10.808;2023-03-04T07:10:07;98971.94;;;-0.10;100.00
64080;BME280;51042;49.696;10.808;2023-03-04T07:12:34;98972.03;;;-0.06;99.54
64080;BME280;51042;49.696;10.808;2023-03-04T07:14:59;98972.03;;;-0.06;98.73
64080;BME280;51042;49.696;10.808;2023-03-04T07:17:24;98970.19;;;-0.02;98.49
64080;BME280;51042;49.696;10.808;2023-03-04T07:19:50;98972.97;;;0.02;98.21
64080;BME280;51042;49.696;10.808;2023-03-04T07:22:24;98979.66;;;0.08;97.48
64080;BME280;51042;49.696;10.808;2023-03-04T07:24:49;98980.09;;;0.10;96.96
64080;BME280;51042;49.696;10.808;2023-03-04T07:27:15;98976.44;;;0.18;97.65
64080;BME280;51042;49.696;10.808;2023-03-04T07:29:42;98976.28;;;0.30;97.69
64080;BME280;51042;49.696;10.808;2023-03-04T07:32:08;98982.91;;;0.32;95.36
64080;BME280;51042;49.696;10.808;2023-03-04T07:34:33;98981.06;;;0.36;95.27
64080;BME280;51042;49.696;10.808;2023-03-04T07:36:58;98981.78;;;0.33;93.93
64080;BME280;51042;49.696;10.808;2023-03-04T07:39:23;98984.56;;;0.37;93.73
64080;BME280;51042;49.696;10.808;2023-03-04T07:41:49;98990.31;;;0.35;92.83
64080;BME280;51042;49.696;10.808;2023-03-04T07:44:14;98997.00;;;0.42;93.34
64080;BME280;51042;49.696;10.808;2023-03-04T07:46:39;98995.94;;;0.46;93.49
64080;BME280;51042;49.696;10.808;2023-03-04T07:49:05;98994.72;;;0.44;93.36
64080;BME280;51042;49.696;10.808;2023-03-04T07:51:30;98996.28;;;0.45;93.72
64080;BME280;51042;49.696;10.808;2023-03-04T07:53:56;98992.53;;;0.49;93.61
64080;BME280;51042;49.696;10.808;2023-03-04T07:56:23;98998.09;;;0.56;93.07
64080;BME280;51042;49.696;10.808;2023-03-04T07:58:49;99004.34;;;0.60;92.26
64080;BME280;51042;49.696;10.808;2023-03-04T08:01:18;98993.53;;;0.60;91.36
64080;BME280;51042;49.696;10.808;2023-03-04T08:03:44;98985.09;;;0.62;91.86
64080;BME280;51042;49.696;10.808;2023-03-04T08:06:10;98985.66;;;0.71;91.33
64080;BME280;51042;49.696;10.808;2023-03-04T08:08:36;98983.09;;;0.78;90.82
64080;BME280;51042;49.696;10.808;2023-03-04T08:11:05;98983.88;;;0.78;90.41
64080;BME280;51042;49.696;10.808;2023-03-04T08:13:30;98986.94;;;0.77;90.12
64080;BME280;51042;49.696;10.808;2023-03-04T08:15:56;98987.00;;;0.80;89.54
64080;BME280;51042;49.696;10.808;2023-03-04T08:18:21;98982.34;;;0.77;88.67
64080;BME280;51042;49.696;10.808;2023-03-04T08:20:46;98987.00;;;0.80;88.88
64080;BME280;51042;49.696;10.808;2023-03-04T08:23:12;98992.75;;;0.79;89.13
64080;BME280;51042;49.696;10.808;2023-03-04T08:25:38;98991.28;;;0.81;89.51
64080;BME280;51042;49.696;10.808;2023-03-04T08:28:03;98984.16;;;0.93;88.97
64080;BME280;51042;49.696;10.808;2023-03-04T08:30:28;98984.22;;;0.96;87.96
64080;BME280;51042;49.696;10.808;2023-03-04T08:32:54;98982.88;;;1.06;87.66
64080;BME280;51042;49.696;10.808;2023-03-04T08:35:19;98989.06;;;1.06;86.63
64080;BME280;51042;49.696;10.808;2023-03-04T08:37:44;98985.28;;;1.11;86.45
64080;BME280;51042;49.696;10.808;2023-03-04T08:40:10;98991.25;;;1.20;86.04
64080;BME280;51042;49.696;10.808;2023-03-04T08:42:35;98989.41;;;1.24;85.79
64080;BME280;51042;49.696;10.808;2023-03-04T08:45:00;98995.44;;;1.37;85.60
64080;BME280;51042;49.696;10.808;2023-03-04T08:47:25;98984.66;;;1.40;84.44
64080;BME280;51042;49.696;10.808;2023-03-04T08:49:50;98985.03;;;1.39;84.94
64080;BME280;51042;49.696;10.808;2023-03-04T08:52:16;98990.13;;;1.44;84.55
64080;BME280;51042;49.696;10.808;2023-03-04T08:54:41;98982.00;;;1.44;84.45
64080;BME280;51042;49.696;10.808;2023-03-04T08:57:06;98978.66;;;1.50;84.31
64080;BME280;51042;49.696;10.808;2023-03-04T08:59:31;98993.31;;;1.49;83.09
64080;BME280;51042;49.696;10.808;2023-03-04T09:01:56;98994.84;;;1.47;83.48
64080;BME280;51042;49.696;10.808;2023-03-04T09:04:22;98990.44;;;1.61;84.04
64080;BME280;51042;49.696;10.808;2023-03-04T09:06:48;99000.41;;;1.80;83.17
64080;BME280;51042;49.696;10.808;2023-03-04T09:09:13;98994.09;;;1.95;83.02
64080;BME280;51042;49.696;10.808;2023-03-04T09:11:38;98998.88;;;2.05;81.79
64080;BME280;51042;49.696;10.808;2023-03-04T09:14:03;98994.25;;;2.06;81.36
64080;BME280;51042;49.696;10.808;2023-03-04T09:16:29;98997.13;;;2.17;81.26
64080;BME280;51042;49.696;10.808;2023-03-04T09:18:54;98998.44;;;2.26;80.67
64080;BME280;51042;49.696;10.808;2023-03-04T09:21:19;98997.38;;;2.34;80.82
64080;BME280;51042;49.696;10.808;2023-03-04T09:23:44;98996.25;;;2.35;79.21
64080;BME280;51042;49.696;10.808;2023-03-04T09:26:28;98993.06;;;2.30;78.92
64080;BME280;51042;49.696;10.808;2023-03-04T09:28:54;99005.94;;;2.36;78.79
64080;BME280;51042;49.696;10.808;2023-03-04T09:31:21;98996.88;;;2.25;78.28
64080;BME280;51042;49.696;10.808;2023-03-04T09:33:46;98996.59;;;2.34;78.71
64080;BME280;51042;49.696;10.808;2023-03-04T09:36:12;99008.06;;;2.24;78.42
64080;BME280;51042;49.696;10.808;2023-03-04T09:38:37;98998.47;;;2.30;78.26
64080;BME280;51042;49.696;10.808;2023-03-04T09:41:05;98999.13;;;2.20;77.98
64080;BME280;51042;49.696;10.808;2023-03-04T09:43:31;98999.94;;;2.24;78.22
64080;BME280;51042;49.696;10.808;2023-03-04T09:46:01;98995.41;;;2.31;78.53
64080;BME280;51042;49.696;10.808;2023-03-04T09:48:28;99002.94;;;2.45;78.46
64080;BME280;51042;49.696;10.808;2023-03-04T09:50:59;99005.25;;;2.43;76.66
64080;BME280;51042;49.696;10.808;2023-03-04T09:53:42;99008.34;;;2.45;77.01
64080;BME280;51042;49.696;10.808;2023-03-04T09:56:10;98995.19;;;2.43;76.76
64080;BME280;51042;49.696;10.808;2023-03-04T10:03:42;98998.22;;;2.68;75.86
64080;BME280;51042;49.696;10.808;2023-03-04T10:06:10;98988.56;;;2.67;75.00
64080;BME280;51042;49.696;10.808;2023-03-04T10:11:25;98992.53;;;2.77;74.44
64080;BME280;51042;49.696;10.808;2023-03-04T10:16:20;98988.13;;;2.95;73.77
64080;BME280;51042;49.696;10.808;2023-03-04T10:18:57;98979.09;;;2.87;74.30
64080;BME280;51042;49.696;10.808;2023-03-04T10:21:29;98985.72;;;2.90;73.93
64080;BME280;51042;49.696;10.808;2023-03-04T10:23:55;98984.81;;;3.12;74.33
64080;BME280;51042;49.696;10.808;2023-03-04T10:26:21;98977.94;;;3.22;72.42
64080;BME280;51042;49.696;10.808;2023-03-04T10:28:47;98975.22;;;3.22;72.46
64080;BME280;51042;49.696;10.808;2023-03-04T10:31:19;98978.47;;;3.35;72.14
64080;BME280;51042;49.696;10.808;2023-03-04T10:33:46;98972.75;;;3.43;72.01
64080;BME280;51042;49.696;10.808;2023-03-04T10:38:53;98973.19;;;3.52;70.97
64080;BME280;51042;49.696;10.808;2023-03-04T10:41:20;98974.66;;;3.39;72.05
64080;BME280;51042;49.696;10.808;2023-03-04T10:43:50;98976.19;;;3.40;72.20
64080;BME280;51042;49.696;10.808;2023-03-04T10:46:24;98975.91;;;3.49;72.19
64080;BME280;51042;49.696;10.808;2023-03-04T10:48:50;98974.38;;;3.51;71.93
64080;BME280;51042;49.696;10.808;2023-03-04T10:51:22;98974.75;;;3.53;72.06
64080;BME280;51042;49.696;10.808;2023-03-04T10:53:48;98977.31;;;3.36;72.36
64080;BME280;51042;49.696;10.808;2023-03-04T10:59:01;98971.94;;;3.39;71.23
64080;BME280;51042;49.696;10.808;2023-03-04T11:01:40;98969.16;;;3.32;71.34
64080;BME280;51042;49.696;10.808;2023-03-04T11:04:13;98960.22;;;3.32;71.31
64080;BME280;51042;49.696;10.808;2023-03-04T11:06:41;98968.03;;;3.37;71.19
64080;BME280;51042;49.696;10.808;2023-03-04T11:09:16;98975.03;;;3.41;71.56
64080;BME280;51042;49.696;10.808;2023-03-04T11:11:44;98970.81;;;3.44;71.19
64080;BME280;51042;49.696;10.808;2023-03-04T11:16:57;98961.91;;;3.47;69.87
64080;BME280;51042;49.696;10.808;2023-03-04T11:19:23;98956.88;;;3.45;70.87
64080;BME280;51042;49.696;10.808;2023-03-04T11:21:51;98951.94;;;3.58;69.62
64080;BME280;51042;49.696;10.808;2023-03-04T11:24:25;98948.41;;;3.54;70.42
64080;BME280;51042;49.696;10.808;2023-03-04T11:26:53;98961.34;;;3.71;70.62
64080;BME280;51042;49.696;10.808;2023-03-04T11:36:54;98945.06;;;3.71;69.81
64080;BME280;51042;49.696;10.808;2023-03-04T11:40:10;98948.50;;;3.64;69.20
64080;BME280;51042;49.696;10.808;2023-03-04T11:42:20;98946.19;;;3.66;69.84
64080;BME280;51042;49.696;10.808;2023-03-04T11:44:47;98945.41;;;3.62;69.64
64080;BME280;51042;49.696;10.808;2023-03-04T12:00:23;98924.22;;;3.82;70.06
64080;BME280;51042;49.696;10.808;2023-03-04T12:05:23;98908.63;;;3.68;70.16
64080;BME280;51042;49.696;10.808;2023-03-04T12:10:24;98904.69;;;3.62;70.83
64080;BME280;51042;49.696;10.808;2023-03-04T12:15:22;98900.41;;;3.61;69.91
64080;BME280;51042;49.696;10.808;2023-03-04T12:20:23;98896.44;;;3.52;69.99
64080;BME280;51042;49.696;10.808;2023-03-04T12:22:54;98901.94;;;3.59;69.83
64080;BME280;51042;49.696;10.808;2023-03-04T12:25:24;98889.59;;;3.65;69.64
64080;BME280;51042;49.696;10.808;2023-03-04T12:37:56;98884.75;;;3.41;69.68
64080;BME280;51042;49.696;10.808;2023-03-04T12:40:37;98881.69;;;3.46;70.08
64080;BME280;51042;49.696;10.808;2023-03-04T12:45:38;98883.53;;;3.89;69.00
64080;BME280;51042;49.696;10.808;2023-03-04T12:48:17;98878.09;;;3.86;69.14
64080;BME280;51042;49.696;10.808;2023-03-04T12:55:56;98870.75;;;3.93;69.81
64080;BME280;51042;49.696;10.808;2023-03-04T12:58:23;98869.56;;;3.84;69.42
64080;BME280;51042;49.696;10.808;2023-03-04T13:01:35;98869.25;;;3.96;69.90
64080;BME280;51042;49.696;10.808;2023-03-04T13:03:39;98871.13;;;3.85;69.34
64080;BME280;51042;49.696;10.808;2023-03-04T13:06:13;98867.94;;;3.72;69.78
64080;BME280;51042;49.696;10.808;2023-03-04T13:08:58;98863.34;;;3.83;70.61
64080;BME280;51042;49.696;10.808;2023-03-04T13:16:37;98852.94;;;3.96;69.66
64080;BME280;51042;49.696;10.808;2023-03-04T13:19:40;98859.47;;;3.84;71.75
64080;BME280;51042;49.696;10.808;2023-03-04T13:21:48;98858.31;;;3.85;71.99
64080;BME280;51042;49.696;10.808;2023-03-04T13:27:39;98853.69;;;3.89;71.78
64080;BME280;51042;49.696;10.808;2023-03-04T13:29:47;98847.19;;;4.04;71.64
64080;BME280;51042;49.696;10.808;2023-03-04T13:32:35;98844.16;;;4.17;71.75
64080;BME280;51042;49.696;10.808;2023-03-04T13:35:21;98847.28;;;4.26;71.64
64080;BME280;51042;49.696;10.808;2023-03-04T13:37:55;98833.69;;;4.26;72.04
64080;BME280;51042;49.696;10.808;2023-03-04T13:42:47;98833.28;;;4.24;72.15
64080;BME280;51042;49.696;10.808;2023-03-04T13:48:23;98822.13;;;4.53;71.43
64080;BME280;51042;49.696;10.808;2023-03-04T13:50:50;98812.47;;;4.67;70.82
64080;BME280;51042;49.696;10.808;2023-03-04T13:55:53;98813.22;;;4.60;70.94
64080;BME280;51042;49.696;10.808;2023-03-04T13:58:26;98813.22;;;4.49;71.39
64080;BME280;51042;49.696;10.808;2023-03-04T14:00:52;98811.25;;;4.43;71.82
64080;BME280;51042;49.696;10.808;2023-03-04T14:03:19;98800.03;;;4.51;71.64
64080;BME280;51042;49.696;10.808;2023-03-04T14:05:45;98817.09;;;4.56;70.93
64080;BME280;51042;49.696;10.808;2023-03-04T14:08:17;98805.41;;;4.34;71.34
64080;BME280;51042;49.696;10.808;2023-03-04T14:10:42;98799.56;;;4.32;71.91
64080;BME280;51042;49.696;10.808;2023-03-04T14:13:08;98802.69;;;4.34;72.25